createdAt,value
2023-04-24T00:01:32.446Z,14.07
2023-04-24T00:04:05.258Z,14.06
2023-04-24T00:06:38.523Z,14.09
2023-04-24T00:09:12.508Z,14.03
2023-04-24T00:11:45.514Z,14.08
2023-04-24T00:14:18.079Z,14.03
2023-04-24T00:16:51.057Z,14.07
2023-04-24T00:19:23.693Z,14.05
2023-04-24T00:21:56.448Z,14.06
2023-04-24T00:24:30.460Z,14.09
2023-04-24T00:27:03.529Z,14.04
2023-04-24T00:29:36.121Z,14.01
2023-04-24T00:32:08.755Z,14.03
2023-04-24T00:34:41.463Z,14.04
2023-04-24T00:37:14.136Z,14.01
2023-04-24T00:39:48.093Z,13.95
2023-04-24T00:42:21.443Z,13.92
2023-04-24T00:44:54.083Z,13.90
2023-04-24T00:47:27.380Z,13.87
2023-04-24T00:50:00.068Z,13.96
2023-04-24T00:52:33.167Z,13.90
2023-04-24T00:55:08.072Z,13.82
2023-04-24T00:57:41.125Z,13.91
2023-04-24T01:00:14.448Z,13.87
2023-04-24T01:02:49.774Z,13.87
2023-04-24T01:05:24.875Z,13.82
2023-04-24T01:07:57.594Z,13.82
2023-04-24T01:10:32.214Z,13.83
2023-04-24T01:13:04.965Z,13.85
2023-04-24T01:15:37.698Z,13.82
2023-04-24T01:18:11.011Z,13.82
2023-04-24T01:20:45.134Z,13.82
2023-04-24T01:23:19.245Z,13.81
2023-04-24T01:25:52.414Z,13.76
2023-04-24T01:28:25.159Z,13.82
2023-04-24T01:30:58.197Z,13.78
2023-04-24T01:33:30.870Z,13.81
2023-04-24T01:36:03.568Z,13.81
2023-04-24T01:38:37.760Z,13.78
2023-04-24T01:41:10.431Z,13.78
2023-04-24T01:43:42.975Z,13.80
2023-04-24T01:46:15.606Z,13.75
2023-04-24T01:48:48.370Z,13.72
2023-04-24T01:51:21.037Z,13.67
2023-04-24T01:53:55.308Z,13.66
2023-04-24T01:56:30.881Z,13.68
2023-04-24T01:59:04.534Z,13.65
2023-04-24T02:01:37.945Z,13.59
2023-04-24T02:04:11.066Z,13.63
2023-04-24T02:06:43.744Z,13.63
2023-04-24T02:09:17.907Z,13.59
2023-04-24T02:11:50.830Z,13.59
2023-04-24T02:14:24.380Z,13.57
2023-04-24T02:17:25.812Z,13.54
2023-04-24T02:20:03.557Z,13.52
2023-04-24T02:22:36.153Z,13.55
2023-04-24T02:25:12.614Z,13.50
2023-04-24T02:27:45.178Z,13.53
2023-04-24T02:30:20.829Z,13.51
2023-04-24T02:33:00.758Z,13.49
2023-04-24T02:35:38.993Z,13.47
2023-04-24T02:38:12.057Z,13.47
2023-04-24T02:40:46.192Z,13.50
2023-04-24T02:43:18.823Z,13.54
2023-04-24T02:45:51.518Z,13.51
2023-04-24T02:48:24.660Z,13.48
2023-04-24T02:50:58.520Z,13.47
2023-04-24T02:53:32.166Z,13.44
2023-04-24T02:56:06.309Z,13.43
2023-04-24T02:58:38.931Z,13.42
2023-04-24T03:01:11.967Z,13.44
2023-04-24T03:03:44.821Z,13.37
2023-04-24T03:06:17.613Z,13.33
2023-04-24T03:08:50.209Z,13.38
2023-04-24T03:11:24.224Z,13.36
2023-04-24T03:13:57.030Z,13.32
2023-04-24T03:16:29.826Z,13.34
2023-04-24T03:19:02.456Z,13.26
2023-04-24T03:21:41.707Z,13.23
2023-04-24T03:24:14.344Z,13.23
2023-04-24T03:26:49.244Z,13.22
2023-04-24T03:29:45.296Z,13.22
2023-04-24T03:32:18.933Z,13.22
2023-04-24T03:34:52.769Z,13.24
2023-04-24T03:37:27.392Z,13.16
2023-04-24T03:40:11.626Z,13.17
2023-04-24T03:42:46.173Z,13.12
2023-04-24T03:45:18.910Z,13.11
2023-04-24T03:47:54.656Z,13.09
2023-04-24T03:50:27.680Z,13.06
2023-04-24T03:53:01.398Z,13.07
2023-04-24T03:55:42.930Z,13.07
2023-04-24T03:58:18.921Z,13.08
2023-04-24T04:00:52.220Z,13.09
2023-04-24T04:03:54.228Z,13.06
2023-04-24T04:06:31.672Z,12.99
2023-04-24T04:09:05.666Z,13.04
2023-04-24T04:11:38.327Z,13.04
2023-04-24T04:23:12.839Z,12.94
2023-04-24T04:25:58.510Z,12.92
2023-04-24T04:28:43.765Z,12.95
2023-04-24T04:31:16.440Z,12.97
2023-04-24T04:37:14.395Z,12.96
2023-04-24T04:40:15.643Z,12.84
2023-04-24T04:43:06.108Z,12.80
2023-04-24T04:45:46.235Z,12.86
2023-04-24T04:49:19.582Z,12.86
2023-04-24T04:51:59.650Z,12.84
2023-04-24T04:54:33.776Z,12.85
2023-04-24T04:57:07.729Z,12.80
2023-04-24T04:59:42.332Z,12.79
2023-04-24T05:02:20.384Z,12.78
2023-04-24T05:04:53.366Z,12.78
2023-04-24T05:07:27.830Z,12.72
2023-04-24T05:10:02.513Z,12.75
2023-04-24T05:12:35.704Z,12.67
2023-04-24T05:15:09.751Z,12.69
2023-04-24T05:17:43.024Z,12.74
2023-04-24T05:20:16.651Z,12.68
2023-04-24T05:22:50.826Z,12.69
2023-04-24T05:25:25.212Z,12.69
2023-04-24T05:28:02.537Z,12.75
2023-04-24T05:30:35.291Z,12.72
2023-04-24T05:33:08.145Z,12.65
2023-04-24T05:35:46.631Z,12.63
2023-04-24T05:38:23.804Z,12.62
2023-04-24T05:40:56.660Z,12.69
2023-04-24T05:43:52.590Z,12.70
2023-04-24T05:46:28.381Z,12.64
2023-04-24T05:49:17.530Z,12.58
2023-04-24T05:51:51.361Z,12.61
2023-04-24T05:54:26.945Z,12.57
2023-04-24T05:57:26.219Z,12.55
2023-04-24T06:00:15.494Z,12.57
2023-04-24T06:02:55.864Z,12.60
2023-04-24T06:05:32.265Z,12.64
2023-04-24T06:09:05.194Z,12.60
2023-04-24T06:11:42.655Z,12.55
2023-04-24T06:14:34.233Z,12.57
2023-04-24T06:17:41.600Z,12.61
2023-04-24T06:20:19.892Z,12.59
2023-04-24T06:23:43.978Z,12.52
2023-04-24T06:26:17.687Z,12.55
2023-04-24T06:28:53.395Z,12.55
2023-04-24T06:31:26.258Z,12.56
2023-04-24T06:34:01.013Z,12.49
2023-04-24T06:36:35.513Z,12.54
2023-04-24T06:39:08.194Z,12.54
2023-04-24T06:41:40.960Z,12.55
2023-04-24T06:44:17.763Z,12.54
2023-04-24T06:46:50.367Z,12.52
2023-04-24T06:49:22.964Z,12.52
2023-04-24T06:51:55.617Z,12.57
2023-04-24T06:54:28.199Z,12.55
2023-04-24T06:57:01.648Z,12.53
2023-04-24T06:59:35.790Z,12.48
2023-04-24T07:02:08.631Z,12.50
2023-04-24T07:04:43.329Z,12.49
2023-04-24T07:07:16.718Z,12.56
2023-04-24T07:09:49.775Z,12.58
2023-04-24T07:12:22.874Z,12.52
2023-04-24T07:14:56.903Z,12.50
2023-04-24T07:17:29.827Z,12.57
2023-04-24T07:20:02.578Z,12.49
2023-04-24T07:22:35.127Z,12.57
2023-04-24T07:25:08.647Z,12.60
2023-04-24T07:27:41.313Z,12.55
2023-04-24T07:30:15.574Z,12.55
2023-04-24T07:32:48.267Z,12.57
2023-04-24T07:35:21.165Z,12.55
2023-04-24T07:37:53.813Z,12.55
2023-04-24T07:40:26.539Z,12.47
2023-04-24T07:42:59.174Z,12.53
2023-04-24T07:45:37.229Z,12.47
2023-04-24T07:48:14.151Z,12.40
2023-04-24T07:50:47.798Z,12.36
2023-04-24T07:53:20.433Z,12.45
2023-04-24T07:55:53.070Z,12.41
2023-04-24T07:58:25.806Z,12.31
2023-04-24T08:00:59.809Z,12.36
2023-04-24T08:03:33.948Z,12.35
2023-04-24T08:06:07.349Z,12.40
2023-04-24T08:08:39.986Z,12.40
2023-04-24T08:11:12.672Z,12.43
2023-04-24T08:13:45.385Z,12.38
2023-04-24T08:16:19.788Z,12.41
2023-04-24T08:18:52.540Z,12.40
2023-04-24T08:21:25.174Z,12.42
2023-04-24T08:23:57.870Z,12.41
2023-04-24T08:26:31.253Z,12.39
2023-04-24T08:29:03.866Z,12.35
2023-04-24T08:31:38.123Z,12.45
2023-04-24T08:34:11.191Z,12.45
2023-04-24T08:36:47.515Z,12.38
2023-04-24T08:39:20.644Z,12.42
2023-04-24T08:41:54.748Z,12.40
2023-04-24T08:44:29.638Z,12.38
2023-04-24T08:47:25.967Z,12.39
2023-04-24T08:49:59.813Z,12.35
2023-04-24T08:52:32.774Z,12.37
2023-04-24T08:55:07.807Z,12.39
2023-04-24T08:57:41.339Z,12.43
2023-04-24T09:00:14.485Z,12.46
2023-04-24T09:02:50.971Z,12.49
2023-04-24T09:07:58.964Z,12.49
2023-04-24T09:10:32.431Z,12.52
2023-04-24T09:13:05.471Z,12.52
2023-04-24T09:15:38.405Z,12.56
2023-04-24T09:18:12.803Z,12.64
2023-04-24T09:21:02.355Z,12.66
2023-04-24T09:23:35.610Z,12.68
2023-04-24T09:26:10.790Z,12.81
2023-04-24T09:28:45.279Z,12.85
2023-04-24T09:31:23.090Z,12.90
2023-04-24T09:34:01.978Z,12.91
2023-04-24T09:36:38.189Z,12.89
2023-04-24T09:39:14.807Z,12.96
2023-04-24T09:41:49.994Z,13.05
2023-04-24T09:44:26.686Z,12.94
2023-04-24T09:47:00.092Z,13.12
2023-04-24T09:49:36.123Z,13.14
2023-04-24T09:52:12.284Z,13.24
2023-04-24T09:54:55.036Z,13.32
2023-04-24T09:57:28.258Z,13.31
2023-04-24T10:00:01.126Z,13.33
2023-04-24T10:02:34.357Z,13.37
2023-04-24T10:05:09.500Z,13.45
2023-04-24T10:07:50.085Z,13.44
2023-04-24T10:10:30.637Z,13.37
2023-04-24T10:13:04.037Z,13.36
2023-04-24T10:15:37.053Z,13.34
2023-04-24T10:18:12.550Z,13.23
2023-04-24T10:20:46.913Z,13.28
2023-04-24T10:23:21.512Z,13.19
2023-04-24T10:25:54.610Z,13.25
2023-04-24T10:28:29.044Z,13.33
2023-04-24T10:31:08.032Z,13.40
2023-04-24T10:33:49.558Z,13.48
2023-04-24T10:36:27.943Z,13.50
2023-04-24T10:39:02.071Z,13.59
2023-04-24T10:41:36.188Z,13.75
2023-04-24T10:44:11.953Z,13.94
2023-04-24T10:46:55.302Z,14.03
2023-04-24T10:49:31.949Z,14.09
2023-04-24T10:52:11.598Z,14.19
2023-04-24T10:54:48.129Z,14.32
2023-04-24T10:57:32.504Z,14.35
2023-04-24T11:00:18.746Z,14.24
2023-04-24T11:02:54.897Z,14.28
2023-04-24T11:05:46.529Z,14.25
2023-04-24T11:08:25.844Z,14.23
2023-04-24T11:10:59.683Z,14.17
2023-04-24T11:13:51.751Z,14.10
2023-04-24T11:16:30.368Z,14.28
2023-04-24T11:19:03.940Z,14.22
2023-04-24T11:21:43.910Z,14.29
2023-04-24T11:24:31.880Z,14.38
2023-04-24T11:27:09.002Z,14.38
2023-04-24T11:29:43.093Z,14.33
2023-04-24T11:32:26.003Z,14.36
2023-04-24T11:34:59.435Z,14.44
2023-04-24T11:37:35.752Z,14.50
2023-04-24T11:40:10.868Z,14.55
2023-04-24T11:42:44.710Z,14.59
2023-04-24T11:45:18.137Z,14.63
2023-04-24T11:47:51.178Z,14.72
2023-04-24T11:50:24.634Z,14.80
2023-04-24T11:52:57.780Z,14.85
2023-04-24T11:55:31.758Z,14.89
2023-04-24T11:58:04.243Z,15.04
2023-04-24T12:00:39.369Z,15.13
2023-04-24T12:03:13.786Z,15.29
2023-04-24T12:05:47.038Z,15.32
2023-04-24T12:08:29.010Z,15.10
2023-04-24T12:11:05.623Z,15.27
2023-04-24T12:16:32.917Z,15.28
2023-04-24T12:19:07.019Z,15.29
2023-04-24T12:21:39.838Z,15.31
2023-04-24T12:24:12.623Z,15.26
2023-04-24T12:26:46.595Z,15.18
2023-04-24T12:29:27.669Z,15.28
2023-04-24T12:32:00.217Z,15.21
2023-04-24T12:34:33.652Z,15.13
2023-04-24T12:37:11.835Z,15.22
2023-04-24T12:39:47.269Z,15.13
2023-04-24T12:42:27.575Z,15.25
2023-04-24T12:45:01.573Z,15.19
2023-04-24T12:47:34.597Z,15.24
2023-04-24T12:50:08.103Z,15.27
2023-04-24T12:52:42.996Z,15.37
2023-04-24T12:55:15.745Z,15.42
2023-04-24T12:57:49.622Z,15.52
2023-04-24T13:00:22.586Z,15.56
2023-04-24T13:02:55.479Z,15.45
2023-04-24T13:05:28.820Z,15.48
2023-04-24T13:08:01.595Z,15.49
2023-04-24T13:10:34.260Z,15.46
2023-04-24T13:13:08.298Z,15.30
2023-04-24T13:15:43.880Z,15.39
2023-04-24T13:18:16.846Z,15.31
2023-04-24T13:20:49.761Z,15.18
2023-04-24T13:23:23.892Z,15.23
2023-04-24T13:25:58.572Z,15.14
2023-04-24T13:28:32.905Z,15.05
2023-04-24T13:31:05.910Z,15.12
2023-04-24T13:33:38.636Z,15.10
2023-04-24T13:36:11.151Z,15.07
2023-04-24T13:38:43.758Z,15.13
2023-04-24T13:41:16.435Z,15.13
2023-04-24T13:43:50.488Z,15.28
2023-04-24T13:46:23.173Z,15.40
2023-04-24T13:48:56.113Z,15.32
2023-04-24T13:51:28.889Z,15.37
2023-04-24T13:54:01.741Z,15.37
2023-04-24T13:56:34.512Z,15.32
2023-04-24T14:02:11.376Z,15.23
2023-04-24T14:13:42.699Z,15.33
2023-04-24T14:16:29.951Z,15.36
2023-04-24T15:25:49.285Z,15.87
2023-04-24T15:28:22.794Z,15.70
2023-04-24T15:30:55.729Z,15.55
2023-04-24T15:33:28.591Z,15.50
2023-04-24T15:36:01.312Z,15.56
2023-04-24T15:38:34.135Z,15.53
2023-04-24T15:41:08.622Z,15.47
2023-04-24T15:43:42.407Z,15.48
2023-04-24T15:46:15.451Z,15.56
2023-04-24T15:48:48.870Z,15.53
2023-04-24T15:54:30.460Z,15.53
2023-04-24T15:57:04.708Z,15.47
2023-04-24T15:59:42.089Z,15.40
2023-04-24T16:02:19.177Z,15.43
2023-04-24T16:04:53.170Z,15.44
2023-04-24T16:07:26.096Z,15.45
2023-04-24T16:10:03.013Z,15.35
2023-04-24T16:12:41.923Z,15.32
2023-04-24T16:15:37.761Z,15.25
2023-04-24T16:18:11.865Z,15.25
2023-04-24T16:20:44.878Z,15.19
2023-04-24T16:23:17.692Z,15.12
2023-04-24T16:25:51.704Z,15.12
2023-04-24T16:28:30.577Z,15.09
2023-04-24T16:31:13.655Z,15.03
2023-04-24T16:33:49.110Z,14.87
2023-04-24T16:36:28.877Z,14.83
2023-04-24T16:39:13.349Z,14.79
2023-04-24T16:41:46.052Z,14.80
2023-04-24T16:44:28.184Z,14.79
2023-04-24T16:47:05.573Z,14.76
2023-04-24T16:49:38.522Z,14.70
2023-04-24T16:52:12.011Z,14.63
2023-04-24T16:54:50.069Z,14.63
2023-04-24T16:57:23.285Z,14.68
2023-04-24T17:00:05.217Z,14.65
2023-04-24T17:02:41.089Z,14.59
2023-04-24T17:05:13.875Z,14.55
2023-04-24T19:08:39.664Z,13.07
2023-04-24T19:11:14.889Z,12.90
2023-04-24T19:13:50.445Z,12.98
2023-04-24T19:16:26.217Z,12.87
2023-04-24T19:19:18.784Z,12.89
2023-04-24T19:21:54.740Z,12.85
2023-04-24T20:13:37.167Z,12.32
2023-04-24T20:17:10.910Z,12.42
2023-04-24T20:20:27.803Z,12.36
2023-04-24T20:23:14.253Z,12.32
2023-04-24T20:25:54.978Z,12.32
2023-04-24T20:28:41.305Z,12.22
2023-04-24T20:31:14.838Z,12.23
2023-04-24T20:33:47.722Z,12.17
2023-04-24T20:36:21.928Z,12.13
2023-04-24T20:38:54.545Z,12.14
2023-04-24T20:41:27.359Z,12.12
2023-04-24T20:44:00.181Z,12.09
2023-04-24T20:46:32.917Z,12.08
2023-04-24T20:49:05.559Z,12.07
2023-04-24T20:51:39.447Z,11.96
2023-04-24T20:54:12.411Z,11.97
2023-04-24T20:56:45.221Z,11.91
2023-04-24T20:59:25.585Z,11.93
2023-04-24T21:02:06.736Z,11.86
2023-04-24T21:04:39.953Z,11.85
2023-04-24T21:07:20.959Z,11.91
2023-04-24T21:09:53.760Z,11.88
2023-04-24T21:12:26.382Z,11.81
2023-04-24T21:14:59.949Z,11.78
2023-04-24T21:17:35.129Z,11.72
2023-04-24T21:20:08.458Z,11.73
2023-04-24T21:22:42.452Z,11.68
2023-04-24T21:25:14.971Z,11.69
2023-04-24T21:27:48.035Z,11.66
2023-04-24T21:30:24.249Z,11.62
2023-04-24T21:33:03.531Z,11.70
2023-04-24T21:35:36.801Z,11.60
2023-04-24T21:38:10.770Z,11.66
2023-04-24T21:40:43.466Z,11.60
2023-04-24T21:43:17.960Z,11.63
2023-04-24T21:45:52.421Z,11.55
2023-04-24T21:48:24.949Z,11.50
2023-04-24T21:50:57.542Z,11.48
2023-04-24T21:56:22.096Z,11.49
2023-04-24T21:58:54.819Z,11.45
2023-04-24T22:01:27.693Z,11.47
2023-04-24T22:04:00.611Z,11.43
2023-04-24T22:06:34.654Z,11.41
2023-04-24T22:09:08.569Z,11.47
2023-04-24T22:11:43.311Z,11.41
2023-04-24T22:14:16.085Z,11.43
2023-04-24T22:16:50.261Z,11.40
2023-04-24T22:19:23.258Z,11.41
2023-04-24T22:21:55.836Z,11.41
2023-04-24T22:24:29.824Z,11.35
2023-04-24T22:27:04.721Z,11.26
2023-04-24T22:29:37.355Z,11.34
2023-04-24T22:32:10.021Z,11.28
2023-04-24T22:34:42.741Z,11.32
2023-04-24T22:37:15.787Z,11.30
2023-04-24T22:39:49.739Z,11.19
2023-04-24T22:42:22.275Z,11.23
2023-04-24T22:44:55.109Z,11.22
2023-04-24T22:47:27.744Z,11.18
2023-04-24T22:50:00.533Z,11.19
2023-04-24T22:52:33.711Z,11.15
2023-04-24T22:55:08.312Z,11.11
2023-04-24T22:57:41.121Z,11.14
2023-04-24T23:00:14.078Z,11.06
2023-04-24T23:02:46.990Z,11.06
2023-04-24T23:05:21.976Z,11.10
2023-04-24T23:07:54.639Z,11.07
2023-04-24T23:10:28.728Z,11.11
2023-04-24T23:13:01.366Z,10.99
2023-04-24T23:15:34.741Z,11.02
2023-04-24T23:18:07.436Z,11.00
2023-04-24T23:20:41.172Z,10.95
2023-04-24T23:23:14.112Z,10.95
2023-04-24T23:25:48.246Z,10.83
2023-04-24T23:28:20.913Z,10.81
2023-04-24T23:30:53.608Z,10.88
2023-04-24T23:33:26.468Z,10.81
2023-04-24T23:35:59.503Z,10.77
2023-04-24T23:38:39.928Z,10.82
2023-04-24T23:41:23.271Z,10.84
2023-04-24T23:43:55.782Z,10.87
2023-04-24T23:46:28.553Z,10.82
2023-04-24T23:49:04.022Z,10.82
2023-04-24T23:51:36.873Z,10.70
2023-04-24T23:54:09.740Z,10.70
2023-04-24T23:56:43.668Z,10.75
2023-04-24T23:59:16.328Z,10.72
